Time;durP1;ratioP1;P1;durP2;ratioP2;P2;SDS_P1;SDS_P2;PMS_P1;PMS_P2;Temp;Humidity;BMP_temperature;BMP_pressure;BME280_temperature;BME280_humidity;BME280_pressure;Samples;Min_cycle;Max_cycle;Signal;HPM_P1;HPM_P2
2021/11/22 00:01:38;;;;;;;58.70;53.33;;;;;;;;;;5076424;28;20190;-83
2021/11/22 00:04:06;;;;;;;53.25;48.90;;;;;;;;;;5076184;28;20197;-84
2021/11/22 00:06:34;;;;;;;52.97;48.58;;;;;;;;;;5058514;28;20308;-84
2021/11/22 00:09:02;;;;;;;52.05;47.92;;;;;;;;;;5076209;28;20197;-84
2021/11/22 00:11:30;;;;;;;54.80;50.33;;;;;;;;;;5075844;28;20284;-84
2021/11/22 00:13:57;;;;;;;56.15;51.42;;;;;;;;;;5075933;28;20196;-84
2021/11/22 00:16:24;;;;;;;52.88;48.58;;;;;;;;;;5076028;28;20189;-84
2021/11/22 00:18:52;;;;;;;57.53;52.67;;;;;;;;;;5075883;28;20209;-84
2021/11/22 00:21:19;;;;;;;61.05;54.88;;;;;;;;;;5075997;28;20224;-84
2021/11/22 00:23:48;;;;;;;58.92;53.45;;;;;;;;;;5076472;28;20594;-83
2021/11/22 00:26:15;;;;;;;62.55;57.00;;;;;;;;;;5075644;28;20718;-84
2021/11/22 00:28:43;;;;;;;59.28;54.15;;;;;;;;;;5075745;28;20189;-84
2021/11/22 00:31:10;;;;;;;59.67;54.63;;;;;;;;;;5075923;28;20195;-84
2021/11/22 00:33:38;;;;;;;61.08;56.08;;;;;;;;;;5075980;28;20193;-83
2021/11/22 00:36:06;;;;;;;59.15;53.75;;;;;;;;;;5058179;28;20197;-84
2021/11/22 00:38:33;;;;;;;58.78;53.92;;;;;;;;;;5075561;28;20224;-84
2021/11/22 00:41:02;;;;;;;60.40;55.00;;;;;;;;;;5076084;28;20194;-84
2021/11/22 00:43:29;;;;;;;58.28;53.00;;;;;;;;;;5075869;28;20265;-84
2021/11/22 00:45:57;;;;;;;63.15;57.10;;;;;;;;;;5075648;28;20987;-83
2021/11/22 00:48:24;;;;;;;61.50;56.35;;;;;;;;;;5075306;28;20207;-83
2021/11/22 00:50:52;;;;;;;59.70;54.90;;;;;;;;;;5075393;28;20194;-84
2021/11/22 00:53:20;;;;;;;58.92;53.85;;;;;;;;;;5075218;28;20196;-83
2021/11/22 00:55:48;;;;;;;64.30;58.45;;;;;;;;;;5075343;28;20606;-83
2021/11/22 00:58:17;;;;;;;62.00;56.80;;;;;;;;;;5075308;28;20201;-83
2021/11/22 01:00:44;;;;;;;61.67;56.20;;;;;;;;;;5075704;28;20628;-84
2021/11/22 01:03:11;;;;;;;58.45;53.20;;;;;;;;;;5075603;28;20189;-83
2021/11/22 01:05:39;;;;;;;58.15;53.60;;;;;;;;;;5075603;28;20189;-83
2021/11/22 01:08:06;;;;;;;58.92;53.63;;;;;;;;;;5074702;28;20523;-83
2021/11/22 01:10:34;;;;;;;58.45;53.20;;;;;;;;;;5075377;28;20248;-83
2021/11/22 01:13:02;;;;;;;52.42;48.60;;;;;;;;;;5084505;28;20198;-83
2021/11/22 01:15:33;;;;;;;56.30;51.30;;;;;;;;;;5084488;28;20197;-84
2021/11/22 01:18:01;;;;;;;58.28;52.42;;;;;;;;;;5085664;28;20189;-84
2021/11/22 01:20:31;;;;;;;56.65;52.05;;;;;;;;;;5079915;28;20194;-84
2021/11/22 01:22:59;;;;;;;57.45;52.67;;;;;;;;;;5075392;28;20194;-83
2021/11/22 01:25:26;;;;;;;56.38;51.97;;;;;;;;;;5075001;28;20660;-84
2021/11/22 01:27:54;;;;;;;56.00;51.55;;;;;;;;;;5074699;28;20294;-83
2021/11/22 01:30:22;;;;;;;57.08;52.50;;;;;;;;;;5075991;28;20225;-84
2021/11/22 01:32:51;;;;;;;57.10;52.45;;;;;;;;;;5074605;28;20213;-84
2021/11/22 01:35:19;;;;;;;58.63;53.92;;;;;;;;;;5074988;28;20188;-83
2021/11/22 01:37:47;;;;;;;58.47;53.80;;;;;;;;;;5074874;28;20197;-84
2021/11/22 01:40:16;;;;;;;56.30;51.80;;;;;;;;;;5074665;28;20201;-82
2021/11/22 01:42:43;;;;;;;58.17;53.53;;;;;;;;;;5075077;28;20194;-83
2021/11/22 01:45:12;;;;;;;56.38;51.72;;;;;;;;;;5058488;28;20251;-84
2021/11/22 01:47:39;;;;;;;53.33;48.70;;;;;;;;;;5076310;28;20219;-84
2021/11/22 01:50:10;;;;;;;61.55;55.92;;;;;;;;;;5074928;28;20189;-84
2021/11/22 01:52:39;;;;;;;58.13;53.38;;;;;;;;;;5073943;28;20221;-84
2021/11/22 01:55:06;;;;;;;53.50;49.10;;;;;;;;;;5074209;28;20193;-84
2021/11/22 01:57:34;;;;;;;54.47;49.80;;;;;;;;;;5074602;28;20196;-84
2021/11/22 02:00:02;;;;;;;54.28;50.08;;;;;;;;;;5074404;28;20189;-84
2021/11/22 02:02:29;;;;;;;56.08;51.53;;;;;;;;;;5074112;28;20190;-83
2021/11/22 02:04:57;;;;;;;53.70;49.50;;;;;;;;;;5073795;28;20194;-84
2021/11/22 02:07:26;;;;;;;54.85;50.65;;;;;;;;;;5073575;28;20222;-84
2021/11/22 02:09:53;;;;;;;54.33;50.17;;;;;;;;;;5073665;28;20636;-83
2021/11/22 02:12:20;;;;;;;53.53;49.35;;;;;;;;;;5073904;28;20195;-84
2021/11/22 02:14:48;;;;;;;49.97;46.22;;;;;;;;;;5074501;28;20659;-84
2021/11/22 02:17:15;;;;;;;50.30;46.55;;;;;;;;;;5074359;28;20216;-82
2021/11/22 02:19:55;;;;;;;48.90;45.53;;;;;;;;;;5074148;28;20285;-84
2021/11/22 02:22:22;;;;;;;50.10;46.35;;;;;;;;;;5074639;28;20204;-83
2021/11/22 02:24:50;;;;;;;48.83;44.90;;;;;;;;;;5073639;28;20644;-84
2021/11/22 02:27:18;;;;;;;43.08;40.08;;;;;;;;;;5074032;28;20304;-83
2021/11/22 02:29:45;;;;;;;49.50;45.80;;;;;;;;;;5074265;28;20539;-84
2021/11/22 02:32:13;;;;;;;52.05;48.33;;;;;;;;;;5073481;28;20204;-84
2021/11/22 02:34:40;;;;;;;46.95;43.58;;;;;;;;;;5074029;28;20238;-83
2021/11/22 02:37:09;;;;;;;46.53;42.90;;;;;;;;;;5074691;28;20189;-83
2021/11/22 02:39:38;;;;;;;48.53;44.88;;;;;;;;;;5073882;28;20193;-83
2021/11/22 02:42:12;;;;;;;50.17;46.78;;;;;;;;;;5073585;28;20659;-84
2021/11/22 02:44:40;;;;;;;48.17;44.65;;;;;;;;;;5073893;28;20296;-84
2021/11/22 02:47:07;;;;;;;47.85;44.78;;;;;;;;;;5073003;28;20228;-81
2021/11/22 02:49:35;;;;;;;48.42;45.05;;;;;;;;;;5074259;28;20225;-83
2021/11/22 02:52:02;;;;;;;45.60;42.30;;;;;;;;;;5073665;28;20229;-84
2021/11/22 02:54:31;;;;;;;45.38;42.15;;;;;;;;;;5073845;28;20189;-83
2021/11/22 02:56:58;;;;;;;45.50;42.30;;;;;;;;;;5074051;28;20190;-86
2021/11/22 02:59:27;;;;;;;45.35;42.25;;;;;;;;;;5074814;28;20291;-84
2021/11/22 03:01:55;;;;;;;42.47;39.47;;;;;;;;;;5073844;28;20216;-83
2021/11/22 03:04:32;;;;;;;43.95;40.95;;;;;;;;;;5073808;28;20204;-84
2021/11/22 03:06:59;;;;;;;44.80;41.60;;;;;;;;;;5073269;28;20212;-83
2021/11/22 03:09:26;;;;;;;44.28;41.05;;;;;;;;;;5074128;28;20197;-84
2021/11/22 03:11:56;;;;;;;42.47;39.58;;;;;;;;;;5074162;28;20201;-83
2021/11/22 03:14:26;;;;;;;40.50;37.67;;;;;;;;;;5073572;28;20216;-84
2021/11/22 03:16:53;;;;;;;41.03;38.38;;;;;;;;;;5073666;28;20197;-83
2021/11/22 03:19:21;;;;;;;40.05;37.45;;;;;;;;;;5073681;28;20672;-83
2021/11/22 03:21:48;;;;;;;40.70;37.90;;;;;;;;;;5056216;28;20205;-83
2021/11/22 03:24:16;;;;;;;42.40;39.50;;;;;;;;;;5073672;28;20185;-83
2021/11/22 03:26:44;;;;;;;36.95;34.42;;;;;;;;;;5074539;28;20216;-83
2021/11/22 03:29:13;;;;;;;39.15;36.65;;;;;;;;;;5074026;28;20706;-84
2021/11/22 03:31:41;;;;;;;38.38;35.97;;;;;;;;;;5074129;28;20201;-84
2021/11/22 03:34:10;;;;;;;42.17;39.45;;;;;;;;;;5077778;28;20188;-84
2021/11/22 03:36:38;;;;;;;39.25;36.88;;;;;;;;;;5077942;28;20198;-83
2021/11/22 03:39:09;;;;;;;39.22;36.50;;;;;;;;;;5077469;28;20243;-84
2021/11/22 03:41:36;;;;;;;39.28;36.70;;;;;;;;;;5080288;28;20201;-84
2021/11/22 03:44:12;;;;;;;37.75;35.25;;;;;;;;;;5078546;28;20186;-83
2021/11/22 03:46:42;;;;;;;31.00;29.10;;;;;;;;;;5077380;28;20221;-84
2021/11/22 03:49:09;;;;;;;31.90;29.55;;;;;;;;;;5077503;28;20193;-84
2021/11/22 03:51:37;;;;;;;30.92;28.85;;;;;;;;;;5076685;28;20207;-84
2021/11/22 03:54:04;;;;;;;30.98;29.08;;;;;;;;;;5076957;28;20194;-84
2021/11/22 03:56:32;;;;;;;28.98;27.30;;;;;;;;;;5077553;28;20208;-83
2021/11/22 03:58:59;;;;;;;30.05;28.10;;;;;;;;;;5077611;28;20280;-83
2021/11/22 04:01:27;;;;;;;31.05;29.10;;;;;;;;;;5077582;28;20223;-83
2021/11/22 04:03:56;;;;;;;31.33;29.02;;;;;;;;;;5084014;28;20563;-84
2021/11/22 04:06:23;;;;;;;31.10;29.08;;;;;;;;;;5083504;28;20194;-84
2021/11/22 04:08:51;;;;;;;29.08;27.30;;;;;;;;;;5077589;28;20223;-84
2021/11/22 04:11:18;;;;;;;28.70;26.95;;;;;;;;;;5078105;28;20237;-83
2021/11/22 04:13:46;;;;;;;30.98;29.08;;;;;;;;;;5078020;28;20193;-82
2021/11/22 04:16:13;;;;;;;29.40;27.50;;;;;;;;;;5077316;28;20285;-84
2021/11/22 04:18:42;;;;;;;29.00;27.17;;;;;;;;;;5076889;28;20185;-83
2021/11/22 04:21:11;;;;;;;29.98;27.92;;;;;;;;;;5077044;28;20188;-82
2021/11/22 04:23:39;;;;;;;29.38;27.58;;;;;;;;;;5077351;28;20195;-84
2021/11/22 04:26:10;;;;;;;29.08;26.77;;;;;;;;;;5076771;28;20198;-83
2021/11/22 04:28:37;;;;;;;29.00;27.00;;;;;;;;;;5076710;28;20246;-83
2021/11/22 04:31:05;;;;;;;29.25;27.05;;;;;;;;;;5079160;28;20551;-83
2021/11/22 04:33:32;;;;;;;28.75;26.95;;;;;;;;;;5078728;28;20197;-84
2021/11/22 04:36:00;;;;;;;29.98;27.85;;;;;;;;;;5077548;28;20208;-83
2021/11/22 04:38:29;;;;;;;28.45;26.52;;;;;;;;;;5078137;28;20546;-84
2021/11/22 04:40:58;;;;;;;27.70;25.75;;;;;;;;;;5078173;28;20194;-84
2021/11/22 04:43:26;;;;;;;28.77;26.90;;;;;;;;;;5077913;28;20243;-84
2021/11/22 04:45:54;;;;;;;28.40;26.20;;;;;;;;;;5077579;28;20185;-83
2021/11/22 04:48:21;;;;;;;29.08;27.17;;;;;;;;;;5077235;28;20572;-84
2021/11/22 04:50:49;;;;;;;29.17;27.17;;;;;;;;;;5077901;28;20201;-83
2021/11/22 04:53:19;;;;;;;26.95;25.20;;;;;;;;;;5060747;28;20197;-83
2021/11/22 04:55:51;;;;;;;27.52;25.58;;;;;;;;;;5078120;28;20202;-84
2021/11/22 04:58:20;;;;;;;27.00;25.40;;;;;;;;;;5077227;28;20193;-83
2021/11/22 05:00:48;;;;;;;29.25;27.35;;;;;;;;;;5077401;28;20613;-83
2021/11/22 05:03:16;;;;;;;27.15;25.45;;;;;;;;;;5076935;28;20197;-84
2021/11/22 05:05:43;;;;;;;27.60;25.75;;;;;;;;;;5077225;28;20185;-83
2021/11/22 05:08:10;;;;;;;29.45;27.40;;;;;;;;;;5076019;28;20228;-84
2021/11/22 05:10:39;;;;;;;28.95;27.00;;;;;;;;;;5080264;28;20242;-83
2021/11/22 05:13:08;;;;;;;29.30;27.30;;;;;;;;;;5081594;28;20544;-84
2021/11/22 05:15:36;;;;;;;27.25;25.40;;;;;;;;;;5077771;28;20542;-84
2021/11/22 05:18:04;;;;;;;27.77;25.98;;;;;;;;;;5076934;28;20190;-83
2021/11/22 05:20:31;;;;;;;27.27;25.52;;;;;;;;;;5076516;28;20185;-84
2021/11/22 05:22:59;;;;;;;28.38;26.60;;;;;;;;;;5076902;28;20223;-84
2021/11/22 05:25:28;;;;;;;28.10;26.50;;;;;;;;;;5076624;28;20189;-83
2021/11/22 05:27:55;;;;;;;28.05;26.35;;;;;;;;;;5076045;28;20225;-84
2021/11/22 05:30:26;;;;;;;28.05;26.33;;;;;;;;;;5075958;28;20314;-84
2021/11/22 05:32:54;;;;;;;27.98;26.17;;;;;;;;;;5057622;28;20250;-84
2021/11/22 05:35:22;;;;;;;28.77;26.85;;;;;;;;;;5075177;28;20647;-84
2021/11/22 05:37:49;;;;;;;30.02;27.67;;;;;;;;;;5074846;28;20189;-84
2021/11/22 05:40:17;;;;;;;28.38;26.55;;;;;;;;;;5074921;28;20618;-83
2021/11/22 05:42:45;;;;;;;28.27;26.52;;;;;;;;;;5086744;28;20209;-83
2021/11/22 05:45:13;;;;;;;29.42;27.42;;;;;;;;;;5076286;28;20591;-83
2021/11/22 05:47:41;;;;;;;28.70;26.67;;;;;;;;;;5075540;28;20219;-84
2021/11/22 05:50:09;;;;;;;29.05;26.98;;;;;;;;;;5076610;28;20216;-84
2021/11/22 05:52:38;;;;;;;27.63;25.90;;;;;;;;;;5078152;28;20196;-83
2021/11/22 05:55:11;;;;;;;28.15;26.35;;;;;;;;;;5077132;28;20194;-83
2021/11/22 05:57:38;;;;;;;27.88;26.17;;;;;;;;;;5076357;28;20215;-83
2021/11/22 06:00:06;;;;;;;29.35;27.48;;;;;;;;;;5074840;28;20593;-82
2021/11/22 06:02:33;;;;;;;27.35;25.65;;;;;;;;;;5076048;28;20243;-83
2021/11/22 06:05:02;;;;;;;28.33;26.42;;;;;;;;;;5077448;28;20195;-83
2021/11/22 06:07:29;;;;;;;30.23;28.20;;;;;;;;;;5078735;28;20248;-84
2021/11/22 06:09:58;;;;;;;29.02;27.20;;;;;;;;;;5076974;28;20232;-83
2021/11/22 06:12:25;;;;;;;29.65;27.60;;;;;;;;;;5075598;28;20190;-84
2021/11/22 06:14:54;;;;;;;28.50;26.67;;;;;;;;;;5075476;28;20205;-84
2021/11/22 06:17:22;;;;;;;29.50;27.40;;;;;;;;;;5075099;28;20201;-84
2021/11/22 06:19:49;;;;;;;28.38;26.48;;;;;;;;;;5075271;28;20185;-83
2021/11/22 06:22:18;;;;;;;30.65;28.75;;;;;;;;;;5074876;28;20193;-83
2021/11/22 06:24:45;;;;;;;29.42;27.52;;;;;;;;;;5074443;28;20194;-83
2021/11/22 06:27:14;;;;;;;27.83;25.95;;;;;;;;;;5076260;28;20632;-84
2021/11/22 06:29:42;;;;;;;29.15;27.17;;;;;;;;;;5075610;28;20197;-83
2021/11/22 06:32:11;;;;;;;30.50;28.45;;;;;;;;;;5076342;28;20194;-84
2021/11/22 06:34:39;;;;;;;30.10;27.83;;;;;;;;;;5077791;28;20200;-83
2021/11/22 06:37:07;;;;;;;29.48;27.50;;;;;;;;;;5078322;28;20189;-84
2021/11/22 06:39:37;;;;;;;31.70;28.88;;;;;;;;;;5081516;28;20247;-84
2021/11/22 06:42:06;;;;;;;30.42;28.17;;;;;;;;;;5079735;28;20659;-83
2021/11/22 06:44:34;;;;;;;31.00;28.85;;;;;;;;;;5094281;28;20178;-83
2021/11/22 06:47:01;;;;;;;28.70;26.90;;;;;;;;;;5058003;28;20545;-84
2021/11/22 06:49:28;;;;;;;29.30;27.10;;;;;;;;;;5078192;28;20222;-83
2021/11/22 06:51:56;;;;;;;29.10;27.05;;;;;;;;;;5060191;28;20197;-84
2021/11/22 06:54:23;;;;;;;30.05;28.13;;;;;;;;;;5078047;28;20190;-84
2021/11/22 06:56:55;;;;;;;31.92;29.58;;;;;;;;;;5060424;28;20200;-82
2021/11/22 06:59:22;;;;;;;29.70;27.70;;;;;;;;;;5077204;28;20186;-83
2021/11/22 07:01:50;;;;;;;30.42;27.92;;;;;;;;;;5058577;28;20239;-84
2021/11/22 07:04:18;;;;;;;29.88;27.80;;;;;;;;;;5074874;28;20196;-84
2021/11/22 07:06:45;;;;;;;29.67;27.70;;;;;;;;;;5076488;28;20193;-83
2021/11/22 07:09:12;;;;;;;29.58;27.48;;;;;;;;;;5084691;28;20221;-83
2021/11/22 07:11:40;;;;;;;29.17;27.08;;;;;;;;;;5077414;28;20237;-84
2021/11/22 07:14:09;;;;;;;29.88;27.60;;;;;;;;;;5059849;28;20205;-84
2021/11/22 07:16:38;;;;;;;30.40;28.40;;;;;;;;;;5077550;28;20192;-84
2021/11/22 07:19:05;;;;;;;30.00;27.92;;;;;;;;;;5077290;28;20251;-83
2021/11/22 07:21:33;;;;;;;29.92;27.75;;;;;;;;;;5077149;28;20196;-80
2021/11/22 07:24:00;;;;;;;29.73;27.50;;;;;;;;;;5076267;28;20194;-79
2021/11/22 07:26:28;;;;;;;29.15;27.15;;;;;;;;;;5058592;28;20671;-79
2021/11/22 07:28:55;;;;;;;29.60;27.55;;;;;;;;;;5079782;28;20224;-78
2021/11/22 07:31:24;;;;;;;30.73;28.63;;;;;;;;;;5079683;28;20218;-80
2021/11/22 07:33:52;;;;;;;30.58;28.38;;;;;;;;;;5076341;28;20528;-79
2021/11/22 07:36:19;;;;;;;31.20;29.10;;;;;;;;;;5072827;28;20208;-78
2021/11/22 07:38:47;;;;;;;30.10;28.00;;;;;;;;;;5062566;28;20191;-77
2021/11/22 07:41:15;;;;;;;29.33;27.23;;;;;;;;;;5063163;28;20186;-79
2021/11/22 07:43:42;;;;;;;32.13;29.77;;;;;;;;;;5056556;28;20194;-78
2021/11/22 07:46:10;;;;;;;30.10;28.00;;;;;;;;;;5056409;28;20194;-78
2021/11/22 07:48:39;;;;;;;29.42;27.33;;;;;;;;;;5056294;28;20225;-77
2021/11/22 07:51:07;;;;;;;28.95;27.00;;;;;;;;;;5056611;28;20191;-78
2021/11/22 07:53:34;;;;;;;30.20;28.08;;;;;;;;;;5057750;28;20189;-77
2021/11/22 07:56:02;;;;;;;29.38;27.27;;;;;;;;;;5057904;28;20190;-78
2021/11/22 07:58:29;;;;;;;30.13;27.77;;;;;;;;;;5056453;28;20659;-78
2021/11/22 08:00:56;;;;;;;29.77;27.70;;;;;;;;;;5041012;28;20227;-78
2021/11/22 08:03:24;;;;;;;30.52;28.42;;;;;;;;;;5064372;28;20214;-78
2021/11/22 08:05:55;;;;;;;28.88;26.98;;;;;;;;;;5061101;28;20562;-80
2021/11/22 08:08:24;;;;;;;29.02;27.13;;;;;;;;;;5055652;28;20226;-78
2021/11/22 08:11:05;;;;;;;30.55;28.38;;;;;;;;;;5060755;28;20700;-77
2021/11/22 08:13:32;;;;;;;28.20;26.35;;;;;;;;;;5055414;28;20198;-78
2021/11/22 08:16:12;;;;;;;29.85;27.77;;;;;;;;;;5055379;28;20224;-76
2021/11/22 08:18:50;;;;;;;28.55;26.55;;;;;;;;;;5054888;28;20186;-76
2021/11/22 08:21:36;;;;;;;28.23;26.42;;;;;;;;;;5055027;28;20209;-76
2021/11/22 08:24:13;;;;;;;28.17;26.38;;;;;;;;;;5055095;28;20191;-77
2021/11/22 08:26:51;;;;;;;29.90;27.80;;;;;;;;;;5054841;28;20520;-77
2021/11/22 08:29:29;;;;;;;29.95;27.95;;;;;;;;;;5054821;28;20730;-77
2021/11/22 08:32:05;;;;;;;29.85;27.75;;;;;;;;;;5036815;28;20205;-77
2021/11/22 08:34:33;;;;;;;29.80;27.85;;;;;;;;;;5054925;28;20213;-79
2021/11/22 08:37:03;;;;;;;29.20;27.25;;;;;;;;;;5055325;28;20210;-79
2021/11/22 08:39:30;;;;;;;28.55;26.70;;;;;;;;;;5055325;28;20193;-79
2021/11/22 08:41:58;;;;;;;28.98;27.08;;;;;;;;;;5055194;28;20568;-79
2021/11/22 08:44:25;;;;;;;28.35;26.35;;;;;;;;;;5055262;28;20201;-79
2021/11/22 08:46:53;;;;;;;29.35;27.35;;;;;;;;;;5054708;28;20554;-79
2021/11/22 08:49:20;;;;;;;29.15;27.05;;;;;;;;;;5055059;28;20232;-79
2021/11/22 08:51:47;;;;;;;29.33;27.42;;;;;;;;;;5054893;28;20198;-78
2021/11/22 08:54:16;;;;;;;28.52;26.50;;;;;;;;;;5054912;28;20203;-79
2021/11/22 08:56:44;;;;;;;27.92;25.77;;;;;;;;;;5054683;28;20580;-78
2021/11/22 08:59:11;;;;;;;28.45;26.55;;;;;;;;;;5054656;28;20214;-79
2021/11/22 09:01:39;;;;;;;28.73;26.80;;;;;;;;;;5036955;28;20202;-82
2021/11/22 09:04:07;;;;;;;28.90;26.70;;;;;;;;;;5055257;28;20189;-83
2021/11/22 09:06:35;;;;;;;27.20;25.13;;;;;;;;;;5036941;28;20248;-83
2021/11/22 09:09:02;;;;;;;28.05;26.05;;;;;;;;;;5055100;28;20262;-83
2021/11/22 09:11:31;;;;;;;27.52;25.52;;;;;;;;;;5037244;28;20581;-78
2021/11/22 09:13:59;;;;;;;27.55;25.38;;;;;;;;;;5054696;28;20205;-79
2021/11/22 09:16:28;;;;;;;26.85;25.05;;;;;;;;;;5054047;28;20205;-78
2021/11/22 09:18:56;;;;;;;27.40;25.60;;;;;;;;;;5054458;28;20191;-78
2021/11/22 09:21:23;;;;;;;27.25;25.45;;;;;;;;;;5054527;28;20194;-78
2021/11/22 09:23:51;;;;;;;27.77;25.88;;;;;;;;;;5054730;28;20195;-78
2021/11/22 09:26:19;;;;;;;27.65;25.75;;;;;;;;;;5054371;28;20201;-85
2021/11/22 09:28:48;;;;;;;29.15;27.10;;;;;;;;;;5053669;28;20256;-80
2021/11/22 09:31:16;;;;;;;27.52;25.73;;;;;;;;;;5053539;28;20195;-79
2021/11/22 09:33:46;;;;;;;28.45;26.65;;;;;;;;;;5053944;28;20186;-79
2021/11/22 09:36:13;;;;;;;28.88;26.90;;;;;;;;;;5054132;28;20203;-80
2021/11/22 09:38:41;;;;;;;26.88;25.08;;;;;;;;;;5053772;28;20624;-80
2021/11/22 09:41:09;;;;;;;27.70;25.80;;;;;;;;;;5054100;28;20213;-80
2021/11/22 09:43:37;;;;;;;27.35;25.65;;;;;;;;;;5053896;28;20197;-84
2021/11/22 09:46:06;;;;;;;26.80;25.00;;;;;;;;;;5055539;28;20252;-93
2021/11/22 09:48:34;;;;;;;26.63;24.83;;;;;;;;;;5063374;28;20207;-94
2021/11/22 09:54:05;;;;;;;27.23;25.42;;;;;;;;;;5036276;22;20261;-96
2021/11/22 09:56:35;;;;;;;24.92;23.27;;;;;;;;;;5022669;28;20203;-96
2021/11/22 09:59:03;;;;;;;25.33;23.70;;;;;;;;;;5021067;28;20552;-82
2021/11/22 10:01:35;;;;;;;23.90;22.40;;;;;;;;;;5014067;28;20638;-83
2021/11/22 10:04:04;;;;;;;24.23;22.73;;;;;;;;;;5014270;28;20195;-83
2021/11/22 10:06:45;;;;;;;24.15;22.75;;;;;;;;;;5014118;28;20621;-83
2021/11/22 10:12:24;;;;;;;23.95;22.20;;;;;;;;;;5010857;28;20204;-94
2021/11/22 10:14:53;;;;;;;25.20;23.70;;;;;;;;;;4994396;28;20254;-82
2021/11/22 10:17:40;;;;;;;25.23;23.58;;;;;;;;;;4994591;28;20194;-89
2021/11/22 10:20:14;;;;;;;24.52;22.90;;;;;;;;;;4994647;28;20196;-90
2021/11/22 10:22:42;;;;;;;24.20;22.60;;;;;;;;;;4996676;28;20207;-89
2021/11/22 10:25:35;;;;;;;24.70;23.20;;;;;;;;;;4996443;28;20282;-96
2021/11/22 10:28:06;;;;;;;23.90;22.40;;;;;;;;;;4967796;28;20200;-92
2021/11/22 10:30:34;;;;;;;24.50;23.00;;;;;;;;;;4975193;28;20233;-84
2021/11/22 10:33:02;;;;;;;24.80;23.15;;;;;;;;;;4975194;28;20193;-85
2021/11/22 10:35:33;;;;;;;25.70;23.50;;;;;;;;;;4975146;28;20200;-85
2021/11/22 10:38:02;;;;;;;24.55;22.80;;;;;;;;;;4973772;28;20238;-85
2021/11/22 10:40:30;;;;;;;23.63;22.25;;;;;;;;;;4985863;28;20733;-85
2021/11/22 10:42:58;;;;;;;22.98;21.52;;;;;;;;;;4994343;28;20659;-85
2021/11/22 10:45:27;;;;;;;22.40;21.00;;;;;;;;;;4994195;28;20231;-84
2021/11/22 10:48:08;;;;;;;22.75;21.20;;;;;;;;;;4994145;28;20207;-84
2021/11/22 10:50:37;;;;;;;23.25;21.75;;;;;;;;;;4994333;28;20311;-84
2021/11/22 10:53:05;;;;;;;23.25;21.83;;;;;;;;;;4994290;28;20236;-84
2021/11/22 10:55:45;;;;;;;23.48;22.08;;;;;;;;;;4977180;28;20204;-84
2021/11/22 10:58:30;;;;;;;23.70;22.10;;;;;;;;;;4995555;28;20194;-85
2021/11/22 11:00:59;;;;;;;23.05;21.55;;;;;;;;;;4978741;28;20204;-85
2021/11/22 11:03:29;;;;;;;23.60;22.00;;;;;;;;;;4994377;28;20200;-84
2021/11/22 11:06:01;;;;;;;22.73;21.33;;;;;;;;;;4994123;28;20544;-84
2021/11/22 11:08:30;;;;;;;23.25;21.33;;;;;;;;;;4994179;28;20188;-85
2021/11/22 11:11:16;;;;;;;23.60;22.15;;;;;;;;;;4993989;28;20224;-84
2021/11/22 11:13:47;;;;;;;22.92;21.23;;;;;;;;;;4994925;28;20676;-84
2021/11/22 11:16:15;;;;;;;23.48;22.08;;;;;;;;;;4983350;28;20200;-84
2021/11/22 11:18:43;;;;;;;23.15;21.60;;;;;;;;;;4994285;28;20211;-85
2021/11/22 11:21:12;;;;;;;24.02;22.55;;;;;;;;;;4994143;28;20665;-85
2021/11/22 11:23:39;;;;;;;24.92;23.33;;;;;;;;;;4994413;28;20232;-84
2021/11/22 11:26:07;;;;;;;23.60;22.00;;;;;;;;;;4994311;28;20194;-85
2021/11/22 11:28:34;;;;;;;24.20;22.60;;;;;;;;;;4994023;28;20200;-84
2021/11/22 11:31:01;;;;;;;23.38;21.98;;;;;;;;;;4993870;28;20221;-85
2021/11/22 11:33:29;;;;;;;23.65;22.10;;;;;;;;;;4994068;28;20325;-85
2021/11/22 11:35:58;;;;;;;23.80;22.40;;;;;;;;;;4994266;28;20197;-84
2021/11/22 11:38:31;;;;;;;22.42;20.98;;;;;;;;;;4993797;28;20228;-84
2021/11/22 11:41:05;;;;;;;22.30;20.80;;;;;;;;;;4993464;28;20257;-83
2021/11/22 11:43:57;;;;;;;22.10;20.90;;;;;;;;;;4993545;28;20241;-84
2021/11/22 11:46:39;;;;;;;21.75;20.48;;;;;;;;;;4993402;28;20196;-84
2021/11/22 11:49:08;;;;;;;22.08;20.80;;;;;;;;;;4992092;28;20208;-83
2021/11/22 11:51:39;;;;;;;21.48;20.02;;;;;;;;;;4995065;28;20206;-84
2021/11/22 11:54:09;;;;;;;21.10;19.80;;;;;;;;;;4997064;28;20215;-83
2021/11/22 11:56:38;;;;;;;21.33;20.08;;;;;;;;;;4997435;28;20208;-84
2021/11/22 11:59:19;;;;;;;20.83;19.33;;;;;;;;;;4997436;28;20674;-84
2021/11/22 12:02:01;;;;;;;20.60;19.50;;;;;;;;;;4997294;28;20639;-85
2021/11/22 12:04:29;;;;;;;20.58;19.17;;;;;;;;;;4994974;28;20298;-84
2021/11/22 12:06:58;;;;;;;21.08;19.77;;;;;;;;;;4997146;28;20191;-84
2021/11/22 12:09:30;;;;;;;21.35;19.95;;;;;;;;;;4997322;28;20230;-84
2021/11/22 12:11:59;;;;;;;20.38;19.27;;;;;;;;;;5000408;28;20204;-85
2021/11/22 12:14:45;;;;;;;20.88;19.58;;;;;;;;;;4998291;28;20192;-84
2021/11/22 12:17:13;;;;;;;21.00;19.80;;;;;;;;;;4998604;28;20725;-84
2021/11/22 12:19:41;;;;;;;21.35;20.00;;;;;;;;;;5002584;28;20204;-84
2021/11/22 12:22:10;;;;;;;22.50;21.10;;;;;;;;;;5000380;28;20218;-84
2021/11/22 12:24:40;;;;;;;20.20;19.00;;;;;;;;;;4998276;28;20236;-84
2021/11/22 12:27:32;;;;;;;21.83;20.40;;;;;;;;;;5002366;28;20196;-83
2021/11/22 12:30:00;;;;;;;21.17;19.75;;;;;;;;;;4998717;28;20216;-87
2021/11/22 12:32:28;;;;;;;21.10;19.80;;;;;;;;;;4998705;28;20192;-86
2021/11/22 12:34:57;;;;;;;21.95;20.60;;;;;;;;;;4980244;28;20302;-86
2021/11/22 12:37:25;;;;;;;20.20;18.90;;;;;;;;;;4997472;28;20224;-84
2021/11/22 12:39:54;;;;;;;21.20;20.00;;;;;;;;;;4981783;28;20195;-84
2021/11/22 12:42:23;;;;;;;21.88;20.67;;;;;;;;;;4999112;28;20197;-86
2021/11/22 12:44:58;;;;;;;20.42;19.23;;;;;;;;;;4996069;28;20193;-85
2021/11/22 12:47:29;;;;;;;20.95;19.58;;;;;;;;;;4998199;28;20197;-86
2021/11/22 12:50:13;;;;;;;21.20;19.80;;;;;;;;;;4997519;28;20213;-85
2021/11/22 12:52:41;;;;;;;22.23;20.88;;;;;;;;;;4997088;28;20240;-86
2021/11/22 12:55:23;;;;;;;21.10;19.80;;;;;;;;;;4998327;28;20196;-84
2021/11/22 12:57:52;;;;;;;21.60;20.17;;;;;;;;;;4994174;28;20613;-85
2021/11/22 13:00:21;;;;;;;21.20;20.10;;;;;;;;;;4998343;28;20192;-86
2021/11/22 13:02:50;;;;;;;21.10;19.77;;;;;;;;;;4997854;28;20201;-86
2021/11/22 13:05:36;;;;;;;20.92;19.63;;;;;;;;;;4997269;28;20196;-85
2021/11/22 13:08:04;;;;;;;22.10;20.33;;;;;;;;;;4998545;28;20207;-86
2021/11/22 13:10:37;;;;;;;21.98;20.67;;;;;;;;;;5000081;28;20228;-85
2021/11/22 13:13:15;;;;;;;22.52;21.13;;;;;;;;;;4999829;28;20649;-81
2021/11/22 13:15:55;;;;;;;22.40;21.10;;;;;;;;;;4998488;28;20605;-82
2021/11/22 13:18:23;;;;;;;22.40;21.00;;;;;;;;;;4999575;28;20240;-82
2021/11/22 13:20:51;;;;;;;21.50;20.30;;;;;;;;;;4998495;28;20674;-83
2021/11/22 13:23:20;;;;;;;21.67;20.38;;;;;;;;;;4997701;28;20209;-84
2021/11/22 13:25:53;;;;;;;21.88;20.55;;;;;;;;;;5006767;28;20196;-83
2021/11/22 13:28:38;;;;;;;20.95;19.75;;;;;;;;;;5000708;28;20191;-81
2021/11/22 13:34:03;;;;;;;22.55;21.25;;;;;;;;;;4997455;28;20200;-82
2021/11/22 13:36:32;;;;;;;21.80;20.50;;;;;;;;;;4999526;28;20196;-83
2021/11/22 13:39:15;;;;;;;22.35;21.05;;;;;;;;;;5001746;28;20543;-82
2021/11/22 13:41:43;;;;;;;22.15;20.85;;;;;;;;;;4997978;28;20200;-83
2021/11/22 13:44:12;;;;;;;22.23;20.60;;;;;;;;;;4996706;28;20191;-83
2021/11/22 13:46:41;;;;;;;21.80;20.33;;;;;;;;;;4996037;28;20630;-83
2021/11/22 13:49:09;;;;;;;23.33;21.45;;;;;;;;;;4997074;28;20292;-83
2021/11/22 13:51:38;;;;;;;22.10;20.50;;;;;;;;;;4996234;28;20290;-84
2021/11/22 13:54:07;;;;;;;21.83;20.50;;;;;;;;;;4997928;28;20479;-82
2021/11/22 13:56:39;;;;;;;22.13;20.50;;;;;;;;;;4997709;28;20415;-83
2021/11/22 13:59:17;;;;;;;22.25;20.75;;;;;;;;;;4997140;28;20238;-84
2021/11/22 14:01:45;;;;;;;21.98;20.58;;;;;;;;;;4997753;28;20243;-83
2021/11/22 14:04:13;;;;;;;22.85;21.45;;;;;;;;;;4997827;28;20569;-83
2021/11/22 14:06:41;;;;;;;22.17;20.77;;;;;;;;;;4996805;28;20204;-82
2021/11/22 14:09:11;;;;;;;21.80;20.40;;;;;;;;;;4996490;28;20224;-82
2021/11/22 14:11:38;;;;;;;22.15;20.75;;;;;;;;;;4997326;28;20258;-83
2021/11/22 14:14:20;;;;;;;21.77;20.38;;;;;;;;;;4997541;28;20200;-83
2021/11/22 14:16:52;;;;;;;21.95;20.55;;;;;;;;;;4995813;28;20661;-82
2021/11/22 14:19:20;;;;;;;23.50;21.60;;;;;;;;;;4994448;28;20204;-82
2021/11/22 14:21:48;;;;;;;22.40;21.10;;;;;;;;;;4998055;28;20256;-82
2021/11/22 14:24:18;;;;;;;21.88;20.45;;;;;;;;;;4997426;28;20205;-82
2021/11/22 14:26:48;;;;;;;21.33;19.92;;;;;;;;;;4998046;28;20204;-83
2021/11/22 14:29:18;;;;;;;21.50;20.20;;;;;;;;;;5000074;28;20193;-82
2021/11/22 14:31:48;;;;;;;21.60;20.30;;;;;;;;;;4998658;28;20220;-82
2021/11/22 14:34:16;;;;;;;21.23;19.92;;;;;;;;;;4997587;28;20426;-83
2021/11/22 14:36:45;;;;;;;21.23;19.67;;;;;;;;;;4999386;28;20239;-84
2021/11/22 14:39:13;;;;;;;21.33;20.13;;;;;;;;;;5002303;28;20217;-84